createdAt,value
2023-03-29T00:04:02.418Z,4.20
2023-03-29T00:09:10.950Z,6.00
2023-03-29T00:14:18.286Z,8.40
2023-03-29T00:19:25.663Z,4.50
2023-03-29T00:24:33.159Z,4.00
2023-03-29T00:29:40.447Z,4.60
2023-03-29T00:34:51.297Z,4.30
2023-03-29T00:39:59.287Z,4.40
2023-03-29T00:45:19.222Z,4.50
2023-03-29T00:50:31.332Z,7.60
2023-03-29T00:55:44.256Z,5.50
2023-03-29T01:00:55.923Z,4.40
2023-03-29T01:06:09.188Z,6.50
2023-03-29T01:11:19.810Z,4.70
2023-03-29T01:16:28.953Z,4.80
2023-03-29T01:21:43.051Z,5.20
2023-03-29T01:27:02.378Z,3.80
2023-03-29T01:32:13.733Z,5.00
2023-03-29T01:37:26.971Z,4.80
2023-03-29T01:42:44.617Z,6.60
2023-03-29T01:48:01.025Z,8.00
2023-03-29T01:53:13.534Z,6.20
2023-03-29T01:58:24.130Z,7.20
2023-03-29T02:03:42.974Z,5.40
2023-03-29T02:08:50.889Z,6.20
2023-03-29T02:13:58.811Z,6.80
2023-03-29T02:19:07.108Z,4.80
2023-03-29T02:24:19.689Z,6.90
2023-03-29T02:29:27.773Z,6.10
2023-03-29T02:34:41.289Z,5.60
2023-03-29T02:39:50.295Z,6.00
2023-03-29T02:45:01.376Z,9.70
2023-03-29T02:50:10.864Z,7.20
2023-03-29T02:55:21.632Z,5.90
2023-03-29T03:00:29.704Z,8.00
2023-03-29T03:05:37.393Z,6.80
2023-03-29T03:10:46.253Z,6.40
2023-03-29T03:15:54.568Z,5.10
2023-03-29T03:21:02.847Z,7.30
2023-03-29T03:26:11.169Z,7.40
2023-03-29T03:31:19.962Z,7.00
2023-03-29T03:36:47.697Z,6.10
2023-03-29T03:41:55.088Z,5.20
2023-03-29T03:47:03.012Z,8.30
2023-03-29T03:52:11.137Z,7.80
2023-03-29T03:57:19.131Z,12.30
2023-03-29T04:02:31.387Z,10.10
2023-03-29T04:07:38.906Z,12.10
2023-03-29T04:13:05.445Z,11.30
2023-03-29T04:18:14.711Z,10.60
2023-03-29T04:23:26.558Z,13.00
2023-03-29T04:28:34.746Z,22.10
2023-03-29T04:33:52.770Z,21.80
2023-03-29T04:39:01.826Z,91.20
2023-03-29T04:44:10.054Z,118.40
2023-03-29T04:49:18.141Z,50.50
2023-03-29T04:54:28.857Z,29.30
2023-03-29T04:59:56.786Z,25.10
2023-03-29T05:05:39.864Z,25.10
2023-03-29T05:10:48.018Z,14.30
2023-03-29T05:15:55.643Z,16.50
2023-03-29T05:21:04.735Z,17.10
2023-03-29T05:26:15.682Z,11.60
2023-03-29T05:31:28.574Z,7.80
2023-03-29T05:36:37.329Z,10.10
2023-03-29T05:41:45.017Z,8.80
2023-03-29T05:47:12.815Z,9.30
2023-03-29T05:52:20.656Z,9.50
2023-03-29T05:57:28.672Z,10.20
2023-03-29T06:02:37.166Z,8.10
2023-03-29T06:07:44.695Z,10.40
2023-03-29T06:12:54.897Z,9.70
2023-03-29T06:18:04.387Z,10.40
2023-03-29T06:23:11.954Z,9.30
2023-03-29T06:28:20.076Z,7.30
2023-03-29T06:33:28.081Z,8.00
2023-03-29T06:38:44.737Z,8.40
2023-03-29T06:44:28.931Z,6.00
2023-03-29T06:49:41.375Z,4.90
2023-03-29T06:55:12.311Z,6.50
2023-03-29T07:00:28.495Z,7.00
2023-03-29T07:06:02.055Z,6.30
2023-03-29T07:11:10.737Z,6.60
2023-03-29T07:16:19.692Z,7.80
2023-03-29T07:21:38.101Z,7.80
2023-03-29T07:27:00.250Z,8.60
2023-03-29T07:32:10.833Z,6.50
2023-03-29T07:37:25.131Z,7.10
2023-03-29T07:42:33.326Z,5.60
2023-03-29T07:47:41.248Z,6.80
2023-03-29T07:52:49.686Z,6.50
2023-03-29T07:57:57.349Z,5.20
2023-03-29T08:03:06.005Z,7.10
2023-03-29T08:08:14.797Z,4.80
2023-03-29T08:13:36.184Z,3.90
2023-03-29T08:19:07.879Z,6.60
2023-03-29T08:24:32.925Z,8.20
2023-03-29T08:34:51.278Z,8.10
2023-03-29T08:40:04.274Z,14.50
2023-03-29T08:45:27.874Z,11.90
2023-03-29T08:50:42.942Z,4.60
2023-03-29T08:55:53.381Z,5.90
2023-03-29T09:01:25.251Z,3.40
2023-03-29T09:06:36.393Z,4.30
2023-03-29T09:12:09.036Z,3.20
2023-03-29T09:17:28.540Z,6.70
2023-03-29T09:22:45.072Z,4.00
2023-03-29T09:28:00.214Z,5.20
2023-03-29T09:33:27.528Z,4.10
2023-03-29T09:38:56.029Z,8.70
2023-03-29T09:44:23.967Z,8.20
2023-03-29T09:49:42.195Z,4.90
2023-03-29T09:54:50.435Z,5.50
2023-03-29T10:00:11.132Z,4.00
2023-03-29T10:05:22.474Z,2.50
2023-03-29T10:10:33.124Z,4.60
2023-03-29T10:15:40.533Z,3.30
2023-03-29T10:20:49.242Z,3.80
2023-03-29T10:25:57.594Z,5.60
2023-03-29T10:31:08.570Z,2.80
2023-03-29T10:36:17.034Z,5.10
2023-03-29T10:41:25.613Z,2.80
2023-03-29T10:46:36.695Z,3.10
2023-03-29T10:51:49.849Z,5.50
2023-03-29T10:57:00.737Z,2.90
2023-03-29T11:02:40.619Z,4.60
2023-03-29T11:08:09.164Z,3.30
2023-03-29T11:13:24.083Z,3.90
2023-03-29T11:18:53.124Z,3.90
2023-03-29T11:24:17.291Z,3.50
2023-03-29T11:29:30.115Z,3.20
2023-03-29T11:34:50.966Z,3.10
2023-03-29T11:40:12.143Z,3.20
2023-03-29T11:45:28.925Z,4.00
2023-03-29T11:50:44.351Z,3.60
2023-03-29T11:55:56.345Z,3.50
2023-03-29T12:01:09.734Z,3.40
2023-03-29T12:06:22.978Z,2.00
2023-03-29T12:11:38.403Z,3.10
2023-03-29T12:16:52.433Z,4.80
2023-03-29T12:22:03.375Z,2.10
2023-03-29T12:27:29.265Z,2.60
2023-03-29T12:32:48.544Z,2.20
2023-03-29T12:38:24.605Z,3.60
2023-03-29T12:43:51.369Z,2.90
2023-03-29T12:49:35.041Z,4.50
2023-03-29T12:54:42.870Z,2.60
2023-03-29T12:59:52.774Z,1.90
2023-03-29T13:05:02.087Z,2.80
2023-03-29T13:10:30.802Z,1.90
2023-03-29T13:15:39.310Z,2.50
2023-03-29T13:20:54.076Z,4.10
2023-03-29T13:26:24.749Z,2.40
2023-03-29T13:31:48.715Z,4.40
2023-03-29T13:37:05.258Z,4.50
2023-03-29T13:42:22.329Z,3.50
2023-03-29T13:47:58.450Z,4.30
2023-03-29T13:53:17.676Z,3.80
2023-03-29T13:58:36.371Z,5.90
2023-03-29T14:03:47.895Z,3.90
2023-03-29T14:08:57.120Z,4.90
2023-03-29T14:14:06.867Z,4.50
2023-03-29T14:19:20.522Z,5.30
2023-03-29T14:24:36.303Z,3.50
2023-03-29T14:29:46.822Z,5.70
2023-03-29T14:34:54.551Z,3.80
2023-03-29T14:40:02.938Z,3.70
2023-03-29T14:45:15.221Z,3.20
2023-03-29T14:55:31.391Z,2.50
2023-03-29T15:00:44.015Z,4.90
2023-03-29T15:05:56.292Z,3.60
2023-03-29T15:11:04.649Z,5.10
2023-03-29T15:16:15.636Z,4.70
2023-03-29T15:21:33.808Z,5.80
2023-03-29T15:26:42.429Z,4.10
2023-03-29T15:31:59.433Z,4.70
2023-03-29T15:37:08.094Z,4.20
2023-03-29T15:42:16.804Z,4.10
2023-03-29T15:47:24.477Z,3.40
2023-03-29T15:52:32.219Z,4.20
2023-03-29T15:57:40.238Z,4.20
2023-03-29T16:02:47.974Z,2.60
2023-03-29T16:07:55.746Z,5.10
2023-03-29T16:13:03.584Z,3.40
2023-03-29T16:18:11.359Z,5.20
2023-03-29T16:23:18.947Z,4.80
2023-03-29T16:28:26.959Z,4.80
2023-03-29T16:33:34.609Z,3.60
2023-03-29T16:38:42.465Z,4.90
2023-03-29T16:43:49.990Z,3.90
2023-03-29T16:48:58.328Z,4.20
2023-03-29T16:54:05.688Z,4.10
2023-03-29T16:59:13.686Z,3.80
2023-03-29T17:04:20.997Z,4.30
2023-03-29T17:09:29.942Z,5.90
2023-03-29T17:14:37.749Z,5.40
2023-03-29T17:19:45.117Z,5.50
2023-03-29T17:24:52.509Z,5.40
2023-03-29T17:30:00.502Z,6.70
2023-03-29T17:35:08.792Z,6.70
2023-03-29T17:40:18.371Z,7.90
2023-03-29T17:45:26.150Z,6.80
2023-03-29T17:50:33.670Z,8.50
2023-03-29T17:55:42.763Z,15.60
2023-03-29T18:00:50.288Z,11.70
2023-03-29T18:05:58.072Z,11.40
2023-03-29T18:11:12.053Z,9.80
2023-03-29T18:16:20.172Z,7.80
2023-03-29T18:21:27.940Z,13.50
2023-03-29T18:26:35.583Z,20.70
2023-03-29T18:31:44.071Z,21.80
2023-03-29T18:36:51.528Z,13.10
2023-03-29T18:41:58.892Z,16.50
2023-03-29T18:47:06.393Z,21.50
2023-03-29T18:52:14.126Z,25.10
2023-03-29T18:57:21.513Z,33.20
2023-03-29T19:02:29.311Z,36.20
2023-03-29T19:07:37.238Z,51.30
2023-03-29T19:12:44.911Z,54.60
2023-03-29T19:17:52.214Z,58.40
2023-03-29T19:23:00.117Z,56.80
2023-03-29T19:28:09.076Z,48.40
2023-03-29T19:33:17.397Z,25.80
2023-03-29T19:38:24.986Z,15.30
2023-03-29T19:43:33.112Z,11.60
2023-03-29T19:48:40.986Z,11.40
2023-03-29T19:53:48.377Z,13.90
2023-03-29T19:58:56.099Z,9.60
2023-03-29T20:04:03.993Z,9.80
2023-03-29T20:09:11.673Z,7.40
2023-03-29T20:14:19.252Z,8.60
2023-03-29T20:19:27.234Z,7.40
2023-03-29T20:24:35.260Z,8.80
2023-03-29T20:29:43.256Z,6.10
2023-03-29T20:34:51.346Z,7.90
2023-03-29T20:39:59.751Z,6.60
2023-03-29T20:45:08.427Z,8.40
2023-03-29T20:50:19.133Z,7.10
2023-03-29T20:55:27.265Z,6.80
2023-03-29T21:00:35.872Z,6.70
2023-03-29T21:05:43.791Z,6.80
2023-03-29T21:10:52.140Z,7.50
2023-03-29T21:16:01.203Z,5.60
2023-03-29T21:21:11.156Z,7.90
2023-03-29T21:26:18.975Z,7.50
2023-03-29T21:31:26.618Z,7.00
2023-03-29T21:36:34.211Z,5.50
2023-03-29T21:41:41.811Z,7.00
2023-03-29T21:46:49.271Z,6.90
2023-03-29T21:51:57.209Z,9.20
2023-03-29T21:57:04.727Z,8.30
2023-03-29T22:02:12.543Z,7.10
2023-03-29T22:07:23.140Z,9.40
2023-03-29T22:12:30.716Z,9.80
2023-03-29T22:17:38.805Z,9.00
2023-03-29T22:22:50.089Z,7.60
2023-03-29T22:27:57.413Z,7.80
2023-03-29T22:33:05.074Z,9.10
2023-03-29T22:38:13.096Z,10.40
2023-03-29T22:43:20.416Z,9.00
2023-03-29T22:48:28.064Z,8.80
2023-03-29T22:53:35.871Z,8.70
2023-03-29T22:58:43.848Z,10.60
2023-03-29T23:03:51.708Z,11.10
2023-03-29T23:08:59.372Z,12.80
2023-03-29T23:14:07.973Z,9.00
2023-03-29T23:19:15.446Z,9.60
2023-03-29T23:24:23.252Z,11.30
2023-03-29T23:29:30.957Z,8.20
2023-03-29T23:34:38.260Z,12.30
2023-03-29T23:39:45.774Z,13.90
2023-03-29T23:44:53.222Z,12.50
2023-03-29T23:50:02.593Z,10.70
2023-03-29T23:55:15.365Z,11.80
